Time;durP1;ratioP1;P1;durP2;ratioP2;P2;SDS_P1;SDS_P2;PMS_P1;PMS_P2;Temp;Humidity;BMP_temperature;BMP_pressure;BME280_temperature;BME280_humidity;BME280_pressure;Samples;Min_cycle;Max_cycle;Signal;HPM_P1;HPM_P2
2023/04/16 00:03:57;;;;;;;13.20;5.70;;;;;;;6.47;100.00;101882.38;10354194;28;20049;-75
2023/04/16 00:08:57;;;;;;;12.90;6.22;;;;;;;6.48;100.00;101884.19;10359482;28;20084;-75
2023/04/16 00:13:58;;;;;;;12.32;5.40;;;;;;;6.52;100.00;101885.31;10365318;28;20129;-76
2023/04/16 00:18:58;;;;;;;22.80;6.03;;;;;;;6.50;100.00;101885.22;10363951;28;20125;-75
2023/04/16 00:23:59;;;;;;;12.40;6.30;;;;;;;6.50;100.00;101889.47;10364445;28;20172;-75
2023/04/16 00:28:59;;;;;;;12.50;6.68;;;;;;;6.50;100.00;101893.00;10364847;28;20073;-75
2023/04/16 00:34:00;;;;;;;16.77;6.80;;;;;;;6.49;100.00;101892.88;10377595;28;20564;-74
2023/04/16 00:39:00;;;;;;;26.65;7.18;;;;;;;6.48;100.00;101889.38;10380908;28;20104;-75
2023/04/16 00:44:01;;;;;;;12.10;6.47;;;;;;;6.47;100.00;101895.38;10381458;28;20497;-75
2023/04/16 00:49:02;;;;;;;17.60;7.50;;;;;;;6.47;100.00;101893.66;10323673;28;20549;-74
2023/04/16 00:54:03;;;;;;;16.08;6.70;;;;;;;6.51;100.00;101896.50;10364281;28;20037;-75
2023/04/16 00:59:03;;;;;;;20.35;6.15;;;;;;;6.47;100.00;101901.47;10402513;28;20049;-75
2023/04/16 01:04:05;;;;;;;12.02;5.68;;;;;;;6.44;100.00;101896.00;10407502;28;20532;-75
2023/04/16 01:09:06;;;;;;;12.85;7.63;;;;;;;6.43;100.00;101896.78;10376162;28;20037;-74
2023/04/16 01:14:06;;;;;;;13.80;6.68;;;;;;;6.45;100.00;101896.94;10346255;28;20034;-74
2023/04/16 01:19:07;;;;;;;13.80;6.78;;;;;;;6.47;100.00;101893.66;10393999;28;20062;-75
2023/04/16 01:24:07;;;;;;;16.25;7.65;;;;;;;6.44;100.00;101903.81;10362820;28;20061;-75
2023/04/16 01:29:08;;;;;;;15.40;9.02;;;;;;;6.41;100.00;101894.88;10383123;28;20103;-74
2023/04/16 01:34:08;;;;;;;13.98;7.78;;;;;;;6.36;100.00;101897.09;10359290;28;20137;-75
2023/04/16 01:39:12;;;;;;;19.55;9.82;;;;;;;6.37;100.00;101898.00;10362053;28;20038;-75
2023/04/16 01:44:13;;;;;;;17.65;10.52;;;;;;;6.35;100.00;101894.38;10360533;28;20042;-75
2023/04/16 01:49:14;;;;;;;14.80;8.23;;;;;;;6.35;100.00;101882.25;10359274;28;20490;-75
2023/04/16 01:54:15;;;;;;;20.60;9.65;;;;;;;6.33;100.00;101889.03;10327378;28;20486;-75
2023/04/16 01:59:15;;;;;;;21.02;10.55;;;;;;;6.34;100.00;101885.66;10362638;28;20120;-75
2023/04/16 02:04:16;;;;;;;28.02;12.13;;;;;;;6.36;100.00;101889.28;10372755;28;20065;-75
2023/04/16 02:09:16;;;;;;;23.02;11.57;;;;;;;6.34;100.00;101892.56;10359164;28;20069;-75
2023/04/16 02:14:17;;;;;;;21.13;11.27;;;;;;;6.34;100.00;101890.84;10344130;28;20145;-75
2023/04/16 02:19:17;;;;;;;20.27;10.60;;;;;;;6.30;100.00;101889.72;10359863;28;20144;-75
2023/04/16 02:24:18;;;;;;;16.58;10.05;;;;;;;6.34;100.00;101895.16;10360172;28;20057;-75
2023/04/16 02:29:19;;;;;;;21.83;10.73;;;;;;;6.35;100.00;101889.16;10361767;28;20171;-75
2023/04/16 02:34:19;;;;;;;25.15;12.25;;;;;;;6.38;100.00;101892.91;10358987;28;20034;-75
2023/04/16 02:39:20;;;;;;;21.98;10.65;;;;;;;6.33;100.00;101894.22;10384920;28;20029;-75
2023/04/16 02:44:20;;;;;;;25.08;11.60;;;;;;;6.37;100.00;101895.41;10344945;28;20061;-75
2023/04/16 02:49:21;;;;;;;26.13;12.73;;;;;;;6.36;100.00;101899.69;10358654;28;20054;-75
2023/04/16 02:54:21;;;;;;;32.20;15.68;;;;;;;6.41;100.00;101906.16;10360110;28;20479;-75
2023/04/16 02:59:22;;;;;;;23.38;14.60;;;;;;;6.36;100.00;101906.59;10373953;28;20128;-75
2023/04/16 03:04:23;;;;;;;25.90;13.73;;;;;;;6.38;100.00;101912.81;10372544;28;20133;-75
2023/04/16 03:09:23;;;;;;;26.95;13.23;;;;;;;6.43;100.00;101912.41;10358318;28;20125;-75
2023/04/16 03:14:24;;;;;;;33.08;16.38;;;;;;;6.43;100.00;101908.91;10357020;28;20046;-76
2023/04/16 03:19:24;;;;;;;26.98;15.50;;;;;;;6.44;100.00;101911.63;10359939;28;20054;-75
2023/04/16 03:24:25;;;;;;;23.70;14.25;;;;;;;6.43;100.00;101904.59;10357761;28;20129;-75
2023/04/16 03:29:26;;;;;;;26.40;13.88;;;;;;;6.44;100.00;101910.72;10364083;28;20057;-75
2023/04/16 03:34:26;;;;;;;30.83;15.63;;;;;;;6.46;100.00;101909.16;10373209;28;20088;-75
2023/04/16 03:39:27;;;;;;;27.17;13.50;;;;;;;6.51;100.00;101905.22;10367059;28;20068;-75
2023/04/16 03:44:27;;;;;;;24.75;13.20;;;;;;;6.51;100.00;101915.63;10365511;28;20072;-75
2023/04/16 03:49:28;;;;;;;18.00;11.88;;;;;;;6.50;100.00;101913.81;10348086;28;20038;-75
2023/04/16 03:54:28;;;;;;;27.10;15.23;;;;;;;6.51;100.00;101920.84;10364097;28;20145;-75
2023/04/16 03:59:29;;;;;;;24.13;14.40;;;;;;;6.51;100.00;101915.63;10379598;28;20057;-75
2023/04/16 04:04:29;;;;;;;20.45;12.60;;;;;;;6.59;100.00;101917.16;10367791;28;20121;-75
2023/04/16 04:09:30;;;;;;;22.63;13.13;;;;;;;6.59;100.00;101919.75;10365551;28;20072;-75
2023/04/16 04:14:30;;;;;;;23.48;13.45;;;;;;;6.64;100.00;101924.44;10362333;28;20478;-75
2023/04/16 04:19:31;;;;;;;22.90;13.10;;;;;;;6.66;100.00;101917.66;10366215;28;20045;-75
2023/04/16 04:24:32;;;;;;;23.83;16.20;;;;;;;6.68;100.00;101927.38;10363827;28;20038;-75
2023/04/16 04:29:32;;;;;;;24.27;12.88;;;;;;;6.68;100.00;101924.78;10381021;28;20069;-75
2023/04/16 04:34:33;;;;;;;24.48;15.30;;;;;;;6.69;100.00;101929.19;10345887;28;20073;-75
2023/04/16 04:39:33;;;;;;;22.40;13.65;;;;;;;6.70;100.00;101931.03;10362669;28;20034;-75
2023/04/16 04:44:34;;;;;;;27.17;13.95;;;;;;;6.78;100.00;101929.06;10360906;28;20040;-75
2023/04/16 04:49:34;;;;;;;26.60;15.25;;;;;;;6.78;100.00;101936.84;10363792;28;20079;-76
2023/04/16 04:54:35;;;;;;;26.65;15.52;;;;;;;6.74;100.00;101942.59;10368957;28;20155;-75
2023/04/16 04:59:35;;;;;;;26.58;14.38;;;;;;;6.72;100.00;101945.06;10362020;28;20065;-75
2023/04/16 05:04:36;;;;;;;24.75;14.18;;;;;;;6.69;100.00;101944.81;10382778;28;20109;-75
2023/04/16 05:09:36;;;;;;;36.03;17.67;;;;;;;6.74;100.00;101942.59;10362059;28;20136;-74
2023/04/16 05:14:37;;;;;;;29.10;16.55;;;;;;;6.74;100.00;101947.81;10360716;28;20065;-75
2023/04/16 05:19:37;;;;;;;32.88;15.90;;;;;;;6.67;100.00;101953.28;10386122;28;20121;-75
2023/04/16 05:24:38;;;;;;;25.63;15.27;;;;;;;6.69;100.00;101962.13;10362056;28;20120;-74
2023/04/16 05:29:38;;;;;;;25.75;15.63;;;;;;;6.69;100.00;101954.31;10361078;28;20502;-74
2023/04/16 05:34:39;;;;;;;32.08;17.80;;;;;;;6.74;100.00;101964.31;10359529;28;20037;-75
2023/04/16 05:39:39;;;;;;;30.80;19.23;;;;;;;6.74;100.00;101966.91;10360389;28;20062;-74
2023/04/16 05:44:40;;;;;;;33.42;19.75;;;;;;;6.84;100.00;101967.66;10343509;28;20450;-75
2023/04/16 05:49:40;;;;;;;34.42;19.63;;;;;;;6.84;100.00;101981.59;10357857;28;20117;-74
2023/04/16 05:54:41;;;;;;;33.30;19.98;;;;;;;6.83;100.00;101982.38;10353516;28;20068;-74
2023/04/16 05:59:42;;;;;;;36.08;20.17;;;;;;;6.81;100.00;101981.34;10386617;28;20041;-74
2023/04/16 06:04:43;;;;;;;37.60;18.13;;;;;;;6.92;100.00;101981.28;10361112;28;20041;-75
2023/04/16 06:09:45;;;;;;;35.65;19.95;;;;;;;6.95;100.00;101997.16;10357594;28;20046;-73
2023/04/16 06:14:45;;;;;;;37.13;19.88;;;;;;;6.90;100.00;101999.38;10379347;28;20042;-73
2023/04/16 06:19:46;;;;;;;45.03;20.50;;;;;;;6.92;100.00;102002.13;10370659;28;20065;-72
2023/04/16 06:24:46;;;;;;;39.65;21.83;;;;;;;7.01;100.00;102003.75;10382083;28;20045;-73
2023/04/16 06:29:47;;;;;;;36.28;22.08;;;;;;;7.00;100.00;101999.31;10375770;28;20058;-73
2023/04/16 06:34:47;;;;;;;38.25;21.80;;;;;;;7.03;100.00;101999.56;10355677;28;20049;-74
2023/04/16 06:39:48;;;;;;;37.75;23.95;;;;;;;7.08;100.00;102007.78;10368702;28;20054;-73
2023/04/16 06:44:48;;;;;;;38.63;21.58;;;;;;;7.17;100.00;102026.72;10381001;28;20125;-73
2023/04/16 06:49:49;;;;;;;49.65;23.20;;;;;;;7.17;100.00;102018.91;10361495;28;20136;-73
2023/04/16 06:54:49;;;;;;;37.53;19.80;;;;;;;7.32;100.00;102028.75;10389750;28;20120;-72
2023/04/16 06:59:50;;;;;;;47.45;24.17;;;;;;;7.34;100.00;102033.25;10389405;28;20061;-73
2023/04/16 07:04:51;;;;;;;59.95;27.02;;;;;;;7.39;100.00;102033.66;10364547;28;20038;-73
2023/04/16 07:09:51;;;;;;;52.67;23.95;;;;;;;7.45;100.00;102034.13;10370130;28;20099;-73
2023/04/16 07:14:52;;;;;;;46.58;24.85;;;;;;;7.52;100.00;102032.00;10361484;28;20128;-73
2023/04/16 07:19:52;;;;;;;41.90;23.08;;;;;;;7.61;100.00;102037.94;10394556;28;20125;-74
2023/04/16 07:24:53;;;;;;;42.80;22.75;;;;;;;7.63;100.00;102045.06;10357298;28;20137;-73
2023/04/16 07:29:54;;;;;;;49.13;27.48;;;;;;;7.63;100.00;102052.00;10364871;28;20129;-72
2023/04/16 07:34:56;;;;;;;47.57;27.80;;;;;;;7.73;100.00;102049.34;10357420;28;21654;-73
2023/04/16 07:39:56;;;;;;;53.67;26.60;;;;;;;7.85;100.00;102057.19;10359937;28;20520;-72
2023/04/16 07:44:57;;;;;;;48.53;26.50;;;;;;;7.91;100.00;102056.75;10364460;28;20100;-73
2023/04/16 07:49:57;;;;;;;56.78;26.00;;;;;;;7.90;100.00;102068.88;10347533;28;20083;-73
2023/04/16 07:54:58;;;;;;;43.25;24.73;;;;;;;7.87;100.00;102081.66;10346454;28;20030;-74
2023/04/16 08:00:00;;;;;;;41.53;22.25;;;;;;;7.93;100.00;102083.84;10364490;28;20076;-73
2023/04/16 08:05:01;;;;;;;42.45;23.00;;;;;;;7.90;100.00;102087.13;10365366;28;20219;-73
2023/04/16 08:10:01;;;;;;;46.42;23.48;;;;;;;7.96;100.00;102089.31;10363597;28;20190;-75
2023/04/16 08:15:02;;;;;;;43.78;24.10;;;;;;;8.02;100.00;102099.28;10364613;28;20121;-75
2023/04/16 08:20:03;;;;;;;48.67;22.35;;;;;;;8.19;100.00;102104.13;10368183;28;20192;-75
2023/04/16 08:25:04;;;;;;;43.00;23.38;;;;;;;8.20;100.00;102105.03;10363060;28;20505;-75
2023/04/16 08:30:06;;;;;;;40.70;23.60;;;;;;;8.22;100.00;102117.41;10388929;28;20045;-77
2023/04/16 08:35:06;;;;;;;37.35;21.02;;;;;;;8.22;100.00;102119.09;10390809;28;20404;-76
2023/04/16 08:40:07;;;;;;;36.42;19.50;;;;;;;8.27;100.00;102109.94;10371199;28;20038;-73
2023/04/16 08:45:13;;;;;;;45.17;21.40;;;;;;;8.35;100.00;102134.00;10370130;28;20076;-74
2023/04/16 08:50:15;;;;;;;34.83;19.27;;;;;;;8.37;100.00;102133.34;10369317;28;20180;-75
2023/04/16 08:55:16;;;;;;;37.55;21.17;;;;;;;8.51;100.00;102130.91;10366139;28;20038;-75
2023/04/16 09:00:16;;;;;;;38.08;18.30;;;;;;;8.76;100.00;102128.44;10345973;28;20486;-75
2023/04/16 09:05:17;;;;;;;41.58;21.00;;;;;;;8.90;100.00;102126.88;10379412;28;20126;-76
2023/04/16 09:10:18;;;;;;;31.98;19.42;;;;;;;9.06;100.00;102135.84;10343521;28;20041;-75
2023/04/16 09:15:19;;;;;;;32.67;16.45;;;;;;;8.88;100.00;102124.94;10338752;28;20050;-75
2023/04/16 09:20:19;;;;;;;31.35;20.25;;;;;;;9.06;100.00;102128.91;10384004;28;20075;-74
2023/04/16 09:25:21;;;;;;;31.67;17.50;;;;;;;10.02;100.00;102131.34;10384572;28;20069;-73
2023/04/16 09:30:23;;;;;;;34.78;16.90;;;;;;;10.65;100.00;102130.47;10374856;28;20046;-75
2023/04/16 09:35:24;;;;;;;21.75;14.38;;;;;;;10.68;100.00;102122.81;10360063;28;20041;-75
2023/04/16 09:40:26;;;;;;;29.30;17.08;;;;;;;10.16;100.00;102141.06;10355568;28;20038;-75
2023/04/16 09:45:30;;;;;;;30.45;16.70;;;;;;;9.97;100.00;102146.72;10374708;28;20036;-75
2023/04/16 09:50:30;;;;;;;28.60;15.82;;;;;;;10.39;100.00;102144.34;10366179;28;20048;-76
2023/04/16 09:55:31;;;;;;;28.58;16.48;;;;;;;10.41;100.00;102153.25;10366281;28;20449;-75
2023/04/16 10:00:32;;;;;;;32.92;18.75;;;;;;;10.51;100.00;102147.84;10397444;28;20037;-75
2023/04/16 10:05:32;;;;;;;37.97;18.23;;;;;;;11.09;100.00;102152.56;10402776;28;20061;-75
2023/04/16 10:10:33;;;;;;;25.88;15.45;;;;;;;11.57;100.00;102153.06;10370664;28;20550;-75
2023/04/16 10:15:33;;;;;;;33.08;17.92;;;;;;;11.81;100.00;102155.44;10358738;28;20123;-75
2023/04/16 10:20:34;;;;;;;37.70;23.58;;;;;;;11.76;100.00;102154.25;10359930;28;20453;-75
2023/04/16 10:25:34;;;;;;;29.30;16.33;;;;;;;12.06;100.00;102151.75;10366709;28;20068;-75
2023/04/16 10:30:35;;;;;;;30.50;17.25;;;;;;;12.57;100.00;102153.94;10399298;28;20053;-75
2023/04/16 10:35:39;;;;;;;26.95;15.50;;;;;;;13.72;100.00;102144.75;10331404;28;20049;-75
2023/04/16 10:40:41;;;;;;;25.25;16.27;;;;;;;13.07;100.00;102147.22;10364877;28;20073;-76
2023/04/16 10:45:41;;;;;;;28.80;17.67;;;;;;;12.41;100.00;102145.13;10339368;28;20521;-76
2023/04/16 10:50:42;;;;;;;35.13;17.63;;;;;;;12.47;100.00;102142.88;10367657;28;20041;-74
2023/04/16 10:56:15;;;;;;;27.67;16.98;;;;;;;13.21;100.00;102146.28;10366763;28;20140;-74
2023/04/16 11:01:15;;;;;;;23.27;15.57;;;;;;;15.02;100.00;102134.81;10382253;28;20153;-73
2023/04/16 11:06:22;;;;;;;24.23;15.48;;;;;;;18.10;100.00;102130.44;10367378;28;20034;-73
2023/04/16 11:11:23;;;;;;;26.13;15.00;;;;;;;17.47;100.00;102124.50;10368202;28;20045;-73
2023/04/16 11:16:23;;;;;;;29.52;14.48;;;;;;;15.05;100.00;102117.44;10375343;28;20540;-73
2023/04/16 11:21:24;;;;;;;19.95;13.57;;;;;;;14.37;100.00;102122.75;10389335;28;20038;-75
2023/04/16 11:26:27;;;;;;;20.20;14.07;;;;;;;15.71;100.00;102124.03;10361828;28;20042;-75
2023/04/16 11:31:27;;;;;;;19.92;14.85;;;;;;;17.56;100.00;102116.06;10373575;28;20033;-73
2023/04/16 11:36:43;;;;;;;22.08;14.85;;;;;;;18.26;100.00;102118.66;10378131;28;20038;-74
2023/04/16 11:41:51;;;;;;;20.15;13.38;;;;;;;15.39;100.00;102124.34;10391368;28;20064;-74
2023/04/16 11:46:52;;;;;;;22.65;14.32;;;;;;;14.40;100.00;102119.41;10370523;28;20478;-76
2023/04/16 11:51:52;;;;;;;20.17;14.70;;;;;;;14.48;100.00;102117.16;10358209;28;20045;-75
2023/04/16 11:56:53;;;;;;;23.98;15.20;;;;;;;14.74;100.00;102126.44;10367803;28;20125;-75
2023/04/16 12:01:56;;;;;;;24.70;15.30;;;;;;;14.27;100.00;102123.09;10363176;28;20034;-75
2023/04/16 12:07:07;;;;;;;24.85;15.48;;;;;;;15.66;100.00;102118.56;10365402;28;20033;-75
2023/04/16 12:12:29;;;;;;;31.98;17.10;;;;;;;15.62;100.00;102123.59;10379799;28;20069;-75
2023/04/16 12:17:31;;;;;;;28.55;19.73;;;;;;;14.57;100.00;102140.44;10394698;28;20048;-75
2023/04/16 12:22:35;;;;;;;33.72;22.67;;;;;;;14.21;100.00;102134.25;10361628;28;20078;-75
2023/04/16 12:27:54;;;;;;;27.35;17.55;;;;;;;14.74;100.00;102141.31;10366578;28;20045;-74
2023/04/16 12:33:17;;;;;;;26.58;16.38;;;;;;;13.73;100.00;102152.72;10378150;28;20075;-75
2023/04/16 12:38:18;;;;;;;24.75;17.25;;;;;;;12.68;100.00;102144.06;10358409;28;20490;-75
2023/04/16 12:43:20;;;;;;;26.95;16.58;;;;;;;12.01;100.00;102153.19;10355200;28;20053;-75
2023/04/16 12:48:20;;;;;;;36.10;19.08;;;;;;;11.83;100.00;102156.44;10358898;28;20046;-73
2023/04/16 12:53:21;;;;;;;32.97;17.60;;;;;;;11.51;100.00;102151.75;10373642;28;20125;-74
2023/04/16 12:58:21;;;;;;;37.38;18.70;;;;;;;11.33;100.00;102151.47;10362306;28;20030;-74
2023/04/16 13:03:22;;;;;;;30.27;18.20;;;;;;;11.42;100.00;102162.56;10367751;28;20099;-74
2023/04/16 13:08:22;;;;;;;27.70;15.85;;;;;;;11.64;100.00;102158.69;10352416;28;20125;-74
2023/04/16 13:13:23;;;;;;;27.60;15.93;;;;;;;11.71;100.00;102156.53;10348135;28;20124;-75
2023/04/16 13:18:25;;;;;;;32.13;17.20;;;;;;;11.75;100.00;102162.91;10357607;28;20038;-75
2023/04/16 13:23:25;;;;;;;34.22;19.17;;;;;;;11.97;100.00;102159.03;10358806;28;20045;-75
2023/04/16 13:28:26;;;;;;;30.95;17.45;;;;;;;12.70;100.00;102151.22;10362091;28;20486;-74
2023/04/16 13:33:27;;;;;;;26.70;17.23;;;;;;;13.27;100.00;102142.19;10361301;28;20045;-75
2023/04/16 13:38:27;;;;;;;30.45;17.17;;;;;;;13.08;100.00;102151.66;10360950;28;20129;-75
2023/04/16 13:43:27;;;;;;;30.67;17.42;;;;;;;13.69;100.00;102148.09;10361492;28;20033;-75
2023/04/16 13:48:28;;;;;;;23.02;17.23;;;;;;;13.82;100.00;102151.41;10360017;28;20173;-75
2023/04/16 13:53:28;;;;;;;34.15;20.52;;;;;;;13.58;100.00;102146.59;10361653;28;20045;-74
2023/04/16 13:58:29;;;;;;;33.42;17.75;;;;;;;13.44;100.00;102154.63;10364644;28;20450;-75
2023/04/16 14:03:34;;;;;;;28.08;17.40;;;;;;;13.58;100.00;102152.78;10361878;28;20109;-75
2023/04/16 14:08:35;;;;;;;27.65;16.00;;;;;;;13.34;100.00;102158.44;10319448;28;20053;-75
2023/04/16 14:13:35;;;;;;;27.42;15.60;;;;;;;13.02;100.00;102160.09;10336729;28;20081;-74
2023/04/16 14:18:39;;;;;;;25.13;16.05;;;;;;;12.73;100.00;102148.78;10371041;28;20123;-74
2023/04/16 14:23:40;;;;;;;22.38;14.63;;;;;;;12.80;100.00;102150.03;10390677;28;20041;-75
2023/04/16 14:28:40;;;;;;;24.40;15.77;;;;;;;13.03;100.00;102138.25;10360801;28;20141;-75
2023/04/16 14:33:41;;;;;;;23.02;15.43;;;;;;;13.15;100.00;102140.69;10326705;28;20048;-74
2023/04/16 14:38:43;;;;;;;26.33;15.57;;;;;;;12.89;100.00;102142.69;10360623;28;20121;-74
2023/04/16 14:43:43;;;;;;;22.25;14.65;;;;;;;12.93;100.00;102139.44;10389634;28;20059;-75
2023/04/16 14:48:44;;;;;;;21.08;13.25;;;;;;;12.93;100.00;102146.44;10401214;28;20120;-74
2023/04/16 14:53:45;;;;;;;25.80;15.65;;;;;;;13.03;100.00;102151.41;10388948;28;20034;-74
2023/04/16 14:58:45;;;;;;;21.88;14.77;;;;;;;12.99;100.00;102148.50;10373176;28;20042;-75
2023/04/16 15:03:46;;;;;;;21.10;13.27;;;;;;;13.11;100.00;102146.56;10357669;28;20100;-75
2023/04/16 15:08:46;;;;;;;22.95;12.88;;;;;;;13.06;100.00;102146.31;10344639;28;20073;-75
2023/04/16 15:13:46;;;;;;;22.60;13.93;;;;;;;13.01;100.00;102142.53;10359445;28;20030;-75
2023/04/16 15:18:47;;;;;;;26.65;13.05;;;;;;;13.40;100.00;102152.59;10349221;28;20122;-75
2023/04/16 15:23:48;;;;;;;23.05;15.57;;;;;;;13.56;100.00;102141.25;10336836;28;20497;-75
2023/04/16 15:28:48;;;;;;;18.30;12.30;;;;;;;13.38;100.00;102148.97;10366519;28;20129;-75
2023/04/16 15:33:49;;;;;;;22.80;15.10;;;;;;;13.35;100.00;102146.16;10367254;28;20058;-74
2023/04/16 15:38:49;;;;;;;21.00;14.25;;;;;;;12.82;100.00;102147.53;10370116;28;20369;-75
2023/04/16 15:43:50;;;;;;;21.83;15.30;;;;;;;12.39;100.00;102149.38;10378453;28;20481;-76
2023/04/16 15:48:50;;;;;;;22.23;13.63;;;;;;;12.15;100.00;102151.41;10382606;28;20053;-76
2023/04/16 15:53:51;;;;;;;26.77;13.15;;;;;;;12.08;100.00;102155.38;10391277;28;20481;-76
2023/04/16 15:58:51;;;;;;;22.48;13.13;;;;;;;12.12;100.00;102145.97;10358019;28;20048;-75
2023/04/16 16:03:52;;;;;;;22.17;12.48;;;;;;;12.26;100.00;102152.97;10338284;28;20034;-74
2023/04/16 16:08:55;;;;;;;16.70;12.80;;;;;;;12.40;100.00;102163.41;10369271;28;20057;-75
2023/04/16 16:13:56;;;;;;;21.13;12.32;;;;;;;12.64;100.00;102164.00;10359508;28;20060;-74
2023/04/16 16:18:56;;;;;;;21.17;12.82;;;;;;;12.72;100.00;102153.94;10348398;28;20133;-75
2023/04/16 16:23:57;;;;;;;17.13;12.60;;;;;;;12.75;100.00;102156.75;10354581;28;20438;-75
2023/04/16 16:28:57;;;;;;;18.10;13.10;;;;;;;12.38;100.00;102155.44;10319705;28;20113;-74
2023/04/16 16:33:58;;;;;;;22.63;14.57;;;;;;;12.28;100.00;102161.84;10365817;28;20044;-74
2023/04/16 16:38:58;;;;;;;17.33;13.13;;;;;;;11.90;100.00;102174.38;10378248;28;20038;-74
2023/04/16 16:43:59;;;;;;;20.48;12.25;;;;;;;11.64;100.00;102167.47;10386730;28;20129;-74
2023/04/16 16:48:59;;;;;;;25.25;13.25;;;;;;;11.37;100.00;102177.97;10386999;28;20064;-75
2023/04/16 16:54:00;;;;;;;16.70;12.32;;;;;;;11.37;100.00;102177.97;10367122;28;20231;-75
2023/04/16 16:59:00;;;;;;;25.08;14.75;;;;;;;11.34;100.00;102176.88;10346502;28;20069;-76
2023/04/16 17:04:01;;;;;;;22.65;14.90;;;;;;;11.26;100.00;102184.22;10365876;28;20054;-76
2023/04/16 17:09:02;;;;;;;23.30;12.80;;;;;;;11.08;100.00;102179.56;10371150;28;20132;-76
2023/04/16 17:14:03;;;;;;;30.93;15.07;;;;;;;11.00;100.00;102180.78;10360867;28;20140;-76
2023/04/16 17:19:03;;;;;;;21.70;14.02;;;;;;;10.98;100.00;102182.38;10375875;28;20320;-76
2023/04/16 17:24:04;;;;;;;26.30;15.48;;;;;;;11.03;100.00;102183.59;10361537;28;20455;-76
2023/04/16 17:29:04;;;;;;;19.05;13.40;;;;;;;11.13;100.00;102180.78;10386961;28;20603;-75
2023/04/16 17:34:05;;;;;;;19.27;13.88;;;;;;;11.02;100.00;102187.94;10394353;28;20064;-76
2023/04/16 17:39:05;;;;;;;21.90;14.77;;;;;;;10.91;100.00;102191.56;10360462;28;20046;-76
2023/04/16 17:44:06;;;;;;;22.67;13.63;;;;;;;10.69;100.00;102187.47;10358722;28;20125;-76
2023/04/16 17:49:07;;;;;;;22.25;12.23;;;;;;;10.47;100.00;102190.31;10422870;28;20092;-76
2023/04/16 17:54:07;;;;;;;26.67;16.98;;;;;;;10.29;100.00;102197.78;10394933;28;20066;-76
2023/04/16 17:59:08;;;;;;;27.00;14.38;;;;;;;10.17;100.00;102208.28;10399666;28;20122;-76
2023/04/16 18:04:08;;;;;;;28.90;17.17;;;;;;;10.02;100.00;102204.56;10395719;28;20130;-76
2023/04/16 18:09:09;;;;;;;20.08;14.57;;;;;;;9.92;100.00;102208.25;10343068;28;20045;-76
2023/04/16 18:14:12;;;;;;;24.33;16.08;;;;;;;9.88;100.00;102220.19;10358446;28;20076;-76
2023/04/16 18:19:12;;;;;;;25.17;15.68;;;;;;;9.80;100.00;102221.31;10360196;28;20485;-76
2023/04/16 18:24:14;;;;;;;26.02;14.70;;;;;;;9.68;100.00;102221.38;10378154;28;20049;-76
2023/04/16 18:29:14;;;;;;;29.30;20.00;;;;;;;9.61;100.00;102221.72;10367130;28;20553;-76
2023/04/16 18:34:15;;;;;;;30.80;19.30;;;;;;;9.49;100.00;102233.09;10379530;28;20041;-76
2023/04/16 18:39:15;;;;;;;27.52;17.77;;;;;;;9.55;100.00;102232.59;10358300;28;20038;-76
2023/04/16 18:44:16;;;;;;;26.17;16.70;;;;;;;9.62;100.00;102236.59;10354803;28;20435;-76
2023/04/16 18:49:17;;;;;;;29.35;19.10;;;;;;;9.65;100.00;102237.72;10358182;28;20140;-76
2023/04/16 18:54:19;;;;;;;48.20;29.60;;;;;;;9.50;100.00;102237.50;10386852;28;20121;-75
2023/04/16 18:59:19;;;;;;;;;;;;;;;9.45;100.00;102237.94;10382556;28;20104;-76
2023/04/16 19:04:20;;;;;;;24.85;19.02;;;;;;;9.44;100.00;102238.75;10385073;28;20705;-76
2023/04/16 19:09:20;;;;;;;38.15;21.00;;;;;;;9.37;100.00;102240.91;10404878;28;20288;-76
2023/04/16 19:14:21;;;;;;;30.83;19.25;;;;;;;9.29;100.00;102249.88;10381972;28;20481;-76
2023/04/16 19:19:21;;;;;;;30.90;19.02;;;;;;;9.17;100.00;102248.94;10405253;28;20641;-76
2023/04/16 19:24:22;;;;;;;34.15;18.60;;;;;;;9.05;100.00;102262.91;10366937;28;20033;-75
2023/04/16 19:29:22;;;;;;;28.98;17.30;;;;;;;8.94;100.00;102259.47;10365741;28;20120;-75
2023/04/16 19:34:23;;;;;;;28.95;18.25;;;;;;;8.87;100.00;102256.25;10364598;28;20046;-75
2023/04/16 19:39:27;;;;;;;30.40;18.42;;;;;;;8.88;100.00;102265.91;10349531;28;20084;-75
2023/04/16 19:44:27;;;;;;;29.98;18.27;;;;;;;8.84;100.00;102269.09;10367120;28;20041;-75
2023/04/16 19:49:28;;;;;;;33.45;17.70;;;;;;;8.72;100.00;102271.66;10387311;28;20042;-75
2023/04/16 19:54:32;;;;;;;28.30;18.02;;;;;;;8.56;100.00;102275.69;10383238;28;20092;-76
2023/04/16 19:59:37;;;;;;;25.17;16.98;;;;;;;8.40;100.00;102281.34;10364272;28;20100;-75
2023/04/16 20:04:37;;;;;;;27.27;17.88;;;;;;;8.33;100.00;102281.66;10383273;28;21763;-75
2023/04/16 20:09:38;;;;;;;25.90;16.02;;;;;;;8.40;100.00;102280.47;10404088;28;20069;-75
2023/04/16 20:14:39;;;;;;;25.00;16.67;;;;;;;8.55;100.00;102286.00;10385356;28;20042;-75
2023/04/16 20:19:39;;;;;;;29.48;18.10;;;;;;;8.63;100.00;102284.91;10363557;28;20045;-75
2023/04/16 20:24:45;;;;;;;24.08;15.57;;;;;;;8.68;100.00;102283.56;10363916;28;20117;-76
2023/04/16 20:29:46;;;;;;;26.85;15.02;;;;;;;8.78;100.00;102293.03;10365429;28;20041;-76
2023/04/16 20:34:47;;;;;;;28.00;15.48;;;;;;;8.74;100.00;102294.47;10363050;28;20096;-75
2023/04/16 20:39:49;;;;;;;28.02;17.17;;;;;;;8.70;100.00;102294.13;10393159;28;20038;-75
2023/04/16 20:44:55;;;;;;;25.93;16.07;;;;;;;8.60;100.00;102289.88;10377601;28;20042;-75
2023/04/16 20:49:55;;;;;;;25.00;17.95;;;;;;;8.63;100.00;102292.72;10352869;28;20038;-75
2023/04/16 20:54:56;;;;;;;32.22;17.52;;;;;;;8.65;100.00;102288.53;10378474;28;20057;-76
2023/04/16 20:59:57;;;;;;;33.67;16.98;;;;;;;8.71;100.00;102285.50;10364154;28;20240;-76
2023/04/16 21:04:57;;;;;;;28.10;15.82;;;;;;;8.69;100.00;102287.97;10386572;28;20180;-75
2023/04/16 21:09:59;;;;;;;22.75;15.48;;;;;;;8.69;100.00;102290.59;10395672;28;20132;-75
2023/04/16 21:15:00;;;;;;;29.77;18.67;;;;;;;8.61;100.00;102286.47;10360988;28;20042;-75
2023/04/16 21:20:01;;;;;;;26.80;18.65;;;;;;;8.56;100.00;102285.19;10361944;28;20038;-76
2023/04/16 21:25:02;;;;;;;27.77;18.80;;;;;;;8.49;100.00;102287.34;10360246;28;20041;-75
2023/04/16 21:30:03;;;;;;;31.20;19.83;;;;;;;8.46;100.00;102289.66;10361470;28;20386;-75
2023/04/16 21:35:04;;;;;;;31.23;18.08;;;;;;;8.38;100.00;102294.28;10359241;28;20117;-75
2023/04/16 21:40:05;;;;;;;33.47;20.53;;;;;;;8.36;100.00;102289.72;10360143;28;20398;-75
2023/04/16 21:45:09;;;;;;;28.42;18.52;;;;;;;8.30;100.00;102289.22;10360974;28;20088;-75
2023/04/16 21:50:10;;;;;;;29.98;20.40;;;;;;;8.17;100.00;102293.47;10356984;28;20038;-75
2023/04/16 21:55:13;;;;;;;33.05;21.25;;;;;;;8.12;100.00;102297.41;10360103;28;20045;-75
2023/04/16 22:00:17;;;;;;;38.38;20.83;;;;;;;8.11;100.00;102292.97;10360097;28;20042;-75
2023/04/16 22:05:18;;;;;;;35.72;20.05;;;;;;;8.03;100.00;102292.38;10360305;28;20478;-76
2023/04/16 22:10:19;;;;;;;33.90;22.38;;;;;;;8.00;100.00;102296.41;10361862;28;20053;-74
2023/04/16 22:15:19;;;;;;;35.78;21.52;;;;;;;7.94;100.00;102299.44;10363667;28;20049;-76
2023/04/16 22:20:21;;;;;;;40.42;24.08;;;;;;;7.92;100.00;102291.50;10366320;28;20124;-75
2023/04/16 22:25:21;;;;;;;47.30;27.23;;;;;;;7.86;100.00;102304.03;10356857;28;20046;-75
2023/04/16 22:30:22;;;;;;;50.50;23.92;;;;;;;7.87;100.00;102289.31;10415414;28;20057;-75